sensor_id;sensor_type;location;lat;lon;timestamp;pressure;altitude;pressure_sealevel;temperature;humidity
19783;BME280;10051;40.294;-3.754;2023-01-26T00:00:06;94815.38;;;4.21;60.52
19783;BME280;10051;40.294;-3.754;2023-01-26T00:02:32;94799.59;;;4.04;60.83
19783;BME280;10051;40.294;-3.754;2023-01-26T00:04:57;94730.75;;;3.57;60.97
19783;BME280;10051;40.294;-3.754;2023-01-26T00:07:23;94731.78;;;3.56;61.28
19783;BME280;10051;40.294;-3.754;2023-01-26T00:09:48;94767.13;;;3.76;61.73
19783;BME280;10051;40.294;-3.754;2023-01-26T00:12:14;94744.91;;;3.62;62.14
19783;BME280;10051;40.294;-3.754;2023-01-26T00:14:40;94740.84;;;3.66;61.64
19783;BME280;10051;40.294;-3.754;2023-01-26T00:17:15;94786.31;;;3.94;61.92
19783;BME280;10051;40.294;-3.754;2023-01-26T00:19:51;94757.19;;;3.73;61.96
19783;BME280;10051;40.294;-3.754;2023-01-26T00:22:16;94779.81;;;3.84;62.13
19783;BME280;10051;40.294;-3.754;2023-01-26T00:24:42;94707.94;;;3.41;61.65
19783;BME280;10051;40.294;-3.754;2023-01-26T00:27:08;94683.72;;;3.29;61.30
19783;BME280;10051;40.294;-3.754;2023-01-26T00:29:33;94777.38;;;4.01;60.91
19783;BME280;10051;40.294;-3.754;2023-01-26T00:31:59;94775.06;;;4.12;60.64
19783;BME280;10051;40.294;-3.754;2023-01-26T00:34:24;94745.94;;;3.91;60.85
19783;BME280;10051;40.294;-3.754;2023-01-26T00:36:50;94767.25;;;4.24;60.52
19783;BME280;10051;40.294;-3.754;2023-01-26T00:39:15;94773.16;;;4.31;59.91
19783;BME280;10051;40.294;-3.754;2023-01-26T00:41:41;94767.53;;;4.34;60.42
19783;BME280;10051;40.294;-3.754;2023-01-26T00:44:24;94749.72;;;4.31;60.38
19783;BME280;10051;40.294;-3.754;2023-01-26T00:46:50;94752.13;;;4.32;60.35
19783;BME280;10051;40.294;-3.754;2023-01-26T00:49:16;94671.22;;;3.68;60.64
19783;BME280;10051;40.294;-3.754;2023-01-26T00:51:41;94748.94;;;4.19;60.50
19783;BME280;10051;40.294;-3.754;2023-01-26T00:54:07;94704.16;;;3.86;60.65
19783;BME280;10051;40.294;-3.754;2023-01-26T00:56:32;94645.69;;;3.46;61.04
19783;BME280;10051;40.294;-3.754;2023-01-26T00:58:58;94643.47;;;3.50;61.00
19783;BME280;10051;40.294;-3.754;2023-01-26T01:01:23;94735.88;;;4.07;61.31
19783;BME280;10051;40.294;-3.754;2023-01-26T01:03:49;94584.28;;;3.03;61.13
19783;BME280;10051;40.294;-3.754;2023-01-26T01:06:16;94626.88;;;3.32;61.18
19783;BME280;10051;40.294;-3.754;2023-01-26T01:08:42;94617.47;;;3.19;61.84
19783;BME280;10051;40.294;-3.754;2023-01-26T01:11:10;94717.88;;;3.93;61.77
19783;BME280;10051;40.294;-3.754;2023-01-26T01:13:36;94721.69;;;3.91;61.58
19783;BME280;10051;40.294;-3.754;2023-01-26T01:16:10;94699.94;;;3.73;61.34
19783;BME280;10051;40.294;-3.754;2023-01-26T01:18:36;94728.22;;;3.81;61.59
19783;BME280;10051;40.294;-3.754;2023-01-26T01:21:10;94662.84;;;3.35;61.90
19783;BME280;10051;40.294;-3.754;2023-01-26T01:23:36;94720.97;;;3.71;61.97
19783;BME280;10051;40.294;-3.754;2023-01-26T01:26:03;94712.00;;;3.67;62.31
19783;BME280;10051;40.294;-3.754;2023-01-26T01:28:29;94705.34;;;3.71;62.06
19783;BME280;10051;40.294;-3.754;2023-01-26T01:30:55;94697.09;;;3.63;62.14
19783;BME280;10051;40.294;-3.754;2023-01-26T01:33:22;94657.41;;;3.37;62.43
19783;BME280;10051;40.294;-3.754;2023-01-26T01:36:01;94649.84;;;3.35;62.15
19783;BME280;10051;40.294;-3.754;2023-01-26T01:38:27;94623.81;;;3.23;62.17
19783;BME280;10051;40.294;-3.754;2023-01-26T01:40:54;94698.56;;;3.70;61.85
19783;BME280;10051;40.294;-3.754;2023-01-26T01:43:21;94648.47;;;3.33;62.15
19783;BME280;10051;40.294;-3.754;2023-01-26T01:45:48;94654.75;;;3.44;62.07
19783;BME280;10051;40.294;-3.754;2023-01-26T01:50:43;94652.53;;;3.29;62.08
19783;BME280;10051;40.294;-3.754;2023-01-26T01:53:12;94656.75;;;3.41;61.95
19783;BME280;10051;40.294;-3.754;2023-01-26T01:55:40;94685.75;;;3.57;61.71
19783;BME280;10051;40.294;-3.754;2023-01-26T01:58:08;94662.88;;;3.47;61.44
19783;BME280;10051;40.294;-3.754;2023-01-26T02:00:34;94597.56;;;2.94;61.54
19783;BME280;10051;40.294;-3.754;2023-01-26T02:03:05;94671.56;;;3.41;61.77
19783;BME280;10051;40.294;-3.754;2023-01-26T02:08:48;94676.03;;;3.34;62.26
19783;BME280;10051;40.294;-3.754;2023-01-26T02:11:24;94648.22;;;3.22;62.38
19783;BME280;10051;40.294;-3.754;2023-01-26T02:13:51;94620.66;;;3.03;62.17
19783;BME280;10051;40.294;-3.754;2023-01-26T02:16:18;94695.22;;;3.51;62.79
19783;BME280;10051;40.294;-3.754;2023-01-26T02:18:44;94689.59;;;3.54;62.48
19783;BME280;10051;40.294;-3.754;2023-01-26T02:21:16;94646.97;;;3.25;62.30
19783;BME280;10051;40.294;-3.754;2023-01-26T02:28:41;94664.25;;;3.50;62.88
19783;BME280;10051;40.294;-3.754;2023-01-26T02:31:08;94610.75;;;3.11;63.14
19783;BME280;10051;40.294;-3.754;2023-01-26T02:33:35;94614.59;;;3.09;63.26
19783;BME280;10051;40.294;-3.754;2023-01-26T02:36:01;94657.09;;;3.45;63.48
19783;BME280;10051;40.294;-3.754;2023-01-26T02:38:43;94650.75;;;3.41;63.23
19783;BME280;10051;40.294;-3.754;2023-01-26T02:41:13;94569.44;;;2.91;63.08
19783;BME280;10051;40.294;-3.754;2023-01-26T02:44:00;94573.31;;;3.01;63.20
19783;BME280;10051;40.294;-3.754;2023-01-26T02:46:26;94598.44;;;3.07;63.03
19783;BME280;10051;40.294;-3.754;2023-01-26T02:48:52;94543.28;;;2.74;63.38
19783;BME280;10051;40.294;-3.754;2023-01-26T02:51:36;94596.31;;;3.16;63.48
19783;BME280;10051;40.294;-3.754;2023-01-26T02:54:01;94599.78;;;3.09;63.29
19783;BME280;10051;40.294;-3.754;2023-01-26T02:56:27;94576.34;;;2.97;63.42
19783;BME280;10051;40.294;-3.754;2023-01-26T02:58:53;94605.03;;;3.21;63.56
19783;BME280;10051;40.294;-3.754;2023-01-26T03:01:18;94540.13;;;2.72;63.77
19783;BME280;10051;40.294;-3.754;2023-01-26T03:03:44;94515.25;;;2.64;63.79
19783;BME280;10051;40.294;-3.754;2023-01-26T03:06:11;94619.56;;;3.41;63.45
19783;BME280;10051;40.294;-3.754;2023-01-26T03:08:37;94614.81;;;3.38;63.76
19783;BME280;10051;40.294;-3.754;2023-01-26T03:11:04;94612.88;;;3.33;63.54
19783;BME280;10051;40.294;-3.754;2023-01-26T03:13:30;94615.69;;;3.32;64.00
19783;BME280;10051;40.294;-3.754;2023-01-26T03:15:56;94537.59;;;2.84;63.94
19783;BME280;10051;40.294;-3.754;2023-01-26T03:18:27;94581.38;;;3.11;63.95
19783;BME280;10051;40.294;-3.754;2023-01-26T03:21:14;94588.31;;;3.17;63.50
19783;BME280;10051;40.294;-3.754;2023-01-26T03:23:59;94568.41;;;3.11;63.09
19783;BME280;10051;40.294;-3.754;2023-01-26T03:26:43;94522.44;;;2.81;63.23
19783;BME280;10051;40.294;-3.754;2023-01-26T03:29:28;94597.16;;;3.40;63.27
19783;BME280;10051;40.294;-3.754;2023-01-26T03:31:53;94573.19;;;3.26;63.19
19783;BME280;10051;40.294;-3.754;2023-01-26T03:34:19;94601.22;;;3.36;63.22
19783;BME280;10051;40.294;-3.754;2023-01-26T03:36:46;94591.41;;;3.38;62.87
19783;BME280;10051;40.294;-3.754;2023-01-26T03:39:13;94593.56;;;3.41;62.67
19783;BME280;10051;40.294;-3.754;2023-01-26T03:41:59;94571.72;;;3.30;62.33
19783;BME280;10051;40.294;-3.754;2023-01-26T03:44:43;94547.06;;;3.21;62.10
19783;BME280;10051;40.294;-3.754;2023-01-26T03:47:27;94543.56;;;3.15;62.01
19783;BME280;10051;40.294;-3.754;2023-01-26T03:50:11;94533.16;;;3.15;61.73
19783;BME280;10051;40.294;-3.754;2023-01-26T03:52:55;94524.09;;;3.06;61.38
19783;BME280;10051;40.294;-3.754;2023-01-26T03:55:39;94561.91;;;3.32;62.07
19783;BME280;10051;40.294;-3.754;2023-01-26T03:58:23;94545.84;;;3.23;61.73
19783;BME280;10051;40.294;-3.754;2023-01-26T04:00:49;94514.13;;;3.03;61.47
19783;BME280;10051;40.294;-3.754;2023-01-26T04:03:15;94534.81;;;3.09;61.99
19783;BME280;10051;40.294;-3.754;2023-01-26T04:05:59;94530.44;;;3.10;61.95
19783;BME280;10051;40.294;-3.754;2023-01-26T04:08:45;94552.75;;;3.30;62.07
19783;BME280;10051;40.294;-3.754;2023-01-26T04:11:11;94477.72;;;2.79;61.83
19783;BME280;10051;40.294;-3.754;2023-01-26T04:13:36;94472.97;;;2.76;62.04
19783;BME280;10051;40.294;-3.754;2023-01-26T04:16:21;94531.69;;;3.19;61.98
19783;BME280;10051;40.294;-3.754;2023-01-26T04:19:05;94528.41;;;3.24;62.41
19783;BME280;10051;40.294;-3.754;2023-01-26T04:21:49;94514.84;;;3.10;63.31
19783;BME280;10051;40.294;-3.754;2023-01-26T04:24:15;94515.09;;;3.20;62.69
19783;BME280;10051;40.294;-3.754;2023-01-26T04:26:41;94507.16;;;3.15;62.41
19783;BME280;10051;40.294;-3.754;2023-01-26T04:29:10;94466.34;;;2.92;62.84
19783;BME280;10051;40.294;-3.754;2023-01-26T04:31:37;94470.19;;;3.01;62.44
19783;BME280;10051;40.294;-3.754;2023-01-26T04:34:04;94448.81;;;2.87;62.54
19783;BME280;10051;40.294;-3.754;2023-01-26T04:36:30;94476.63;;;2.98;61.87
19783;BME280;10051;40.294;-3.754;2023-01-26T04:38:56;94419.19;;;2.64;61.99
19783;BME280;10051;40.294;-3.754;2023-01-26T04:41:22;94387.44;;;2.50;61.84
19783;BME280;10051;40.294;-3.754;2023-01-26T04:43:48;94475.09;;;3.21;62.00
19783;BME280;10051;40.294;-3.754;2023-01-26T04:46:14;94491.38;;;3.29;62.06
19783;BME280;10051;40.294;-3.754;2023-01-26T04:48:40;94467.94;;;3.05;61.93
19783;BME280;10051;40.294;-3.754;2023-01-26T04:51:11;94452.91;;;3.07;61.71
19783;BME280;10051;40.294;-3.754;2023-01-26T04:53:36;94441.63;;;3.01;62.16
19783;BME280;10051;40.294;-3.754;2023-01-26T04:56:02;94444.66;;;2.98;62.06
19783;BME280;10051;40.294;-3.754;2023-01-26T04:58:28;94491.16;;;3.42;61.41
19783;BME280;10051;40.294;-3.754;2023-01-26T05:00:56;94447.84;;;3.24;61.15
19783;BME280;10051;40.294;-3.754;2023-01-26T05:03:23;94369.66;;;2.78;60.97
19783;BME280;10051;40.294;-3.754;2023-01-26T05:05:53;94435.22;;;3.27;61.63
19783;BME280;10051;40.294;-3.754;2023-01-26T05:08:21;94472.16;;;3.53;61.75
19783;BME280;10051;40.294;-3.754;2023-01-26T05:10:46;94333.50;;;2.64;62.01
19783;BME280;10051;40.294;-3.754;2023-01-26T05:13:12;94416.53;;;3.19;61.96
19783;BME280;10051;40.294;-3.754;2023-01-26T05:15:38;94474.88;;;3.59;62.48
19783;BME280;10051;40.294;-3.754;2023-01-26T05:18:04;94404.22;;;3.26;62.30
19783;BME280;10051;40.294;-3.754;2023-01-26T05:20:30;94336.44;;;2.80;62.50
19783;BME280;10051;40.294;-3.754;2023-01-26T05:22:56;94455.09;;;3.57;62.84
19783;BME280;10051;40.294;-3.754;2023-01-26T05:25:21;94315.88;;;2.66;62.58
19783;BME280;10051;40.294;-3.754;2023-01-26T05:27:47;94346.47;;;2.88;62.55
19783;BME280;10051;40.294;-3.754;2023-01-26T05:30:13;94374.28;;;3.00;63.03
19783;BME280;10051;40.294;-3.754;2023-01-26T05:32:39;94435.66;;;3.48;62.73
19783;BME280;10051;40.294;-3.754;2023-01-26T05:35:05;94422.88;;;3.35;63.10
19783;BME280;10051;40.294;-3.754;2023-01-26T05:37:32;94339.25;;;2.66;63.80
19783;BME280;10051;40.294;-3.754;2023-01-26T05:39:58;94376.63;;;2.89;63.93
19783;BME280;10051;40.294;-3.754;2023-01-26T05:42:24;94442.56;;;3.31;64.12
19783;BME280;10051;40.294;-3.754;2023-01-26T05:44:50;94449.09;;;3.21;64.48
19783;BME280;10051;40.294;-3.754;2023-01-26T05:47:15;94375.72;;;2.72;64.67
19783;BME280;10051;40.294;-3.754;2023-01-26T05:49:41;94386.69;;;2.74;65.08
19783;BME280;10051;40.294;-3.754;2023-01-26T05:52:13;94418.13;;;2.96;65.25
19783;BME280;10051;40.294;-3.754;2023-01-26T05:54:39;94360.00;;;2.55;65.12
19783;BME280;10051;40.294;-3.754;2023-01-26T05:57:05;94440.81;;;3.12;65.37
19783;BME280;10051;40.294;-3.754;2023-01-26T05:59:30;94327.34;;;2.35;65.50
19783;BME280;10051;40.294;-3.754;2023-01-26T06:01:56;94443.22;;;3.14;65.68
19783;BME280;10051;40.294;-3.754;2023-01-26T06:04:22;94387.47;;;2.74;65.61
19783;BME280;10051;40.294;-3.754;2023-01-26T06:06:48;94443.22;;;3.14;65.48
19783;BME280;10051;40.294;-3.754;2023-01-26T06:09:16;94438.03;;;3.14;65.39
19783;BME280;10051;40.294;-3.754;2023-01-26T06:11:41;94439.34;;;3.05;66.08
19783;BME280;10051;40.294;-3.754;2023-01-26T06:14:07;94383.06;;;2.75;66.31
19783;BME280;10051;40.294;-3.754;2023-01-26T06:16:32;94355.97;;;2.59;66.32
19783;BME280;10051;40.294;-3.754;2023-01-26T06:18:58;94366.22;;;2.65;66.63
19783;BME280;10051;40.294;-3.754;2023-01-26T06:21:24;94394.69;;;2.72;66.88
19783;BME280;10051;40.294;-3.754;2023-01-26T06:23:49;94373.91;;;2.72;66.72
19783;BME280;10051;40.294;-3.754;2023-01-26T06:26:15;94420.97;;;3.06;66.55
19783;BME280;10051;40.294;-3.754;2023-01-26T06:28:41;94366.22;;;2.65;66.66
19783;BME280;10051;40.294;-3.754;2023-01-26T06:31:07;94362.34;;;2.44;67.36
19783;BME280;10051;40.294;-3.754;2023-01-26T06:33:35;94290.72;;;2.01;67.68
19783;BME280;10051;40.294;-3.754;2023-01-26T06:36:02;94408.72;;;2.83;67.64
19783;BME280;10051;40.294;-3.754;2023-01-26T06:38:28;94343.16;;;2.33;67.78
19783;BME280;10051;40.294;-3.754;2023-01-26T06:40:57;94314.97;;;2.06;67.98
19783;BME280;10051;40.294;-3.754;2023-01-26T06:43:23;94409.94;;;2.80;68.07
19783;BME280;10051;40.294;-3.754;2023-01-26T06:45:48;94339.03;;;2.26;68.05
19783;BME280;10051;40.294;-3.754;2023-01-26T06:48:14;94315.41;;;2.03;68.10
19783;BME280;10051;40.294;-3.754;2023-01-26T06:50:39;94380.53;;;2.44;68.96
19783;BME280;10051;40.294;-3.754;2023-01-26T06:53:33;94388.59;;;2.66;68.79
19783;BME280;10051;40.294;-3.754;2023-01-26T06:56:01;94396.25;;;2.73;68.34
19783;BME280;10051;40.294;-3.754;2023-01-26T06:58:26;94347.09;;;2.48;68.38
19783;BME280;10051;40.294;-3.754;2023-01-26T07:00:53;94390.28;;;2.73;68.43
19783;BME280;10051;40.294;-3.754;2023-01-26T07:03:20;94344.19;;;2.56;68.13
19783;BME280;10051;40.294;-3.754;2023-01-26T07:05:45;94373.47;;;2.75;68.40
19783;BME280;10051;40.294;-3.754;2023-01-26T07:08:11;94368.63;;;2.79;68.12
19783;BME280;10051;40.294;-3.754;2023-01-26T07:10:39;94390.31;;;2.96;67.69
19783;BME280;10051;40.294;-3.754;2023-01-26T07:13:05;94394.28;;;2.99;68.04
19783;BME280;10051;40.294;-3.754;2023-01-26T07:15:31;94390.31;;;2.96;67.94
19783;BME280;10051;40.294;-3.754;2023-01-26T07:17:57;94382.75;;;2.95;68.07
19783;BME280;10051;40.294;-3.754;2023-01-26T07:20:23;94359.13;;;2.73;68.01
19783;BME280;10051;40.294;-3.754;2023-01-26T07:22:50;94384.66;;;3.00;67.92
19783;BME280;10051;40.294;-3.754;2023-01-26T07:25:17;94383.53;;;2.95;68.24
19783;BME280;10051;40.294;-3.754;2023-01-26T07:27:43;94322.09;;;2.65;67.73
19783;BME280;10051;40.294;-3.754;2023-01-26T07:30:09;94376.88;;;3.11;67.32
19783;BME280;10051;40.294;-3.754;2023-01-26T07:32:35;94347.16;;;2.95;67.19
19783;BME280;10051;40.294;-3.754;2023-01-26T07:35:01;94255.16;;;2.56;66.60
19783;BME280;10051;40.294;-3.754;2023-01-26T07:37:29;94329.66;;;3.03;66.48
19783;BME280;10051;40.294;-3.754;2023-01-26T07:39:55;94363.44;;;3.26;66.33
19783;BME280;10051;40.294;-3.754;2023-01-26T07:42:22;94319.03;;;2.92;66.31
19783;BME280;10051;40.294;-3.754;2023-01-26T07:44:47;94316.13;;;2.89;66.51
19783;BME280;10051;40.294;-3.754;2023-01-26T07:47:13;94278.63;;;2.61;66.25
19783;BME280;10051;40.294;-3.754;2023-01-26T07:49:39;94368.66;;;3.26;66.26
19783;BME280;10051;40.294;-3.754;2023-01-26T07:52:05;94346.94;;;3.09;66.79
19783;BME280;10051;40.294;-3.754;2023-01-26T07:54:30;94321.31;;;2.89;66.58
19783;BME280;10051;40.294;-3.754;2023-01-26T07:56:56;94302.25;;;2.83;67.16
19783;BME280;10051;40.294;-3.754;2023-01-26T07:59:22;94367.84;;;3.26;67.30
19783;BME280;10051;40.294;-3.754;2023-01-26T08:01:48;94377.09;;;3.22;67.55
19783;BME280;10051;40.294;-3.754;2023-01-26T08:04:14;94270.25;;;2.47;67.02
19783;BME280;10051;40.294;-3.754;2023-01-26T08:06:40;94336.22;;;3.05;67.53
19783;BME280;10051;40.294;-3.754;2023-01-26T08:09:06;94315.78;;;2.85;68.03
19783;BME280;10051;40.294;-3.754;2023-01-26T08:11:31;94368.50;;;3.09;68.02
19783;BME280;10051;40.294;-3.754;2023-01-26T08:13:57;94347.72;;;3.09;67.36
19783;BME280;10051;40.294;-3.754;2023-01-26T08:16:22;94350.25;;;3.04;68.38
19783;BME280;10051;40.294;-3.754;2023-01-26T08:18:48;94345.69;;;3.11;68.33
19783;BME280;10051;40.294;-3.754;2023-01-26T08:21:15;94305.50;;;2.90;67.73
19783;BME280;10051;40.294;-3.754;2023-01-26T08:23:41;94333.72;;;3.10;67.45
19783;BME280;10051;40.294;-3.754;2023-01-26T08:26:10;94350.00;;;3.30;67.48
19783;BME280;10051;40.294;-3.754;2023-01-26T08:28:36;94334.75;;;3.21;67.00
19783;BME280;10051;40.294;-3.754;2023-01-26T08:31:14;94390.31;;;3.68;66.50
19783;BME280;10051;40.294;-3.754;2023-01-26T08:33:43;94360.31;;;3.65;66.26
19783;BME280;10051;40.294;-3.754;2023-01-26T08:36:13;94341.56;;;3.63;65.78
19783;BME280;10051;40.294;-3.754;2023-01-26T08:38:39;94314.13;;;3.55;65.18
19783;BME280;10051;40.294;-3.754;2023-01-26T08:41:05;94353.72;;;3.86;65.72
19783;BME280;10051;40.294;-3.754;2023-01-26T08:43:31;94346.41;;;4.00;65.25
19783;BME280;10051;40.294;-3.754;2023-01-26T08:45:57;94326.88;;;3.98;64.81
19783;BME280;10051;40.294;-3.754;2023-01-26T08:48:23;94384.44;;;4.59;64.32
19783;BME280;10051;40.294;-3.754;2023-01-26T08:50:53;94247.34;;;3.73;64.58
19783;BME280;10051;40.294;-3.754;2023-01-26T08:53:19;94242.06;;;3.68;64.30
19783;BME280;10051;40.294;-3.754;2023-01-26T08:55:44;94379.56;;;4.63;64.36
19783;BME280;10051;40.294;-3.754;2023-01-26T08:58:10;94273.75;;;4.11;64.27
19783;BME280;10051;40.294;-3.754;2023-01-26T09:00:36;94295.59;;;4.27;63.95
19783;BME280;10051;40.294;-3.754;2023-01-26T09:03:03;94338.47;;;4.70;63.05
19783;BME280;10051;40.294;-3.754;2023-01-26T09:05:35;94353.25;;;4.99;62.38
19783;BME280;10051;40.294;-3.754;2023-01-26T09:08:02;94210.66;;;4.21;62.89
19783;BME280;10051;40.294;-3.754;2023-01-26T09:10:28;94341.69;;;5.12;62.51
19783;BME280;10051;40.294;-3.754;2023-01-26T09:12:53;94190.94;;;4.25;61.85
19783;BME280;10051;40.294;-3.754;2023-01-26T09:15:20;94273.28;;;4.82;61.87
19783;BME280;10051;40.294;-3.754;2023-01-26T09:17:50;94389.00;;;5.77;60.82
19783;BME280;10051;40.294;-3.754;2023-01-26T09:20:16;94310.22;;;5.58;60.50
19783;BME280;10051;40.294;-3.754;2023-01-26T09:22:43;94313.69;;;5.63;60.12
19783;BME280;10051;40.294;-3.754;2023-01-26T09:25:09;94313.91;;;5.84;59.87
19783;BME280;10051;40.294;-3.754;2023-01-26T09:27:35;94319.25;;;5.94;59.56
19783;BME280;10051;40.294;-3.754;2023-01-26T09:30:01;94308.00;;;6.16;57.88
19783;BME280;10051;40.294;-3.754;2023-01-26T09:32:27;94333.78;;;6.35;57.74
19783;BME280;10051;40.294;-3.754;2023-01-26T09:34:54;94275.75;;;6.00;57.65
19783;BME280;10051;40.294;-3.754;2023-01-26T09:37:20;94212.25;;;5.67;57.38
19783;BME280;10051;40.294;-3.754;2023-01-26T09:39:46;94327.38;;;6.48;56.13
19783;BME280;10051;40.294;-3.754;2023-01-26T09:50:19;94244.03;;;6.51;53.20
19783;BME280;10051;40.294;-3.754;2023-01-26T09:52:58;94276.44;;;6.88;52.77
19783;BME280;10051;40.294;-3.754;2023-01-26T09:55:27;94402.75;;;7.80;52.71
19783;BME280;10051;40.294;-3.754;2023-01-26T09:58:02;94267.41;;;7.11;52.06
19783;BME280;10051;40.294;-3.754;2023-01-26T10:00:39;94393.22;;;8.11;51.82
19783;BME280;10051;40.294;-3.754;2023-01-26T10:06:24;94169.06;;;7.05;50.54
19783;BME280;10051;40.294;-3.754;2023-01-26T10:09:05;94201.66;;;7.51;49.84
19783;BME280;10051;40.294;-3.754;2023-01-26T10:11:47;94157.66;;;7.37;50.05
19783;BME280;10051;40.294;-3.754;2023-01-26T10:15:00;94276.97;;;8.33;48.84
19783;BME280;10051;40.294;-3.754;2023-01-26T10:17:56;94296.34;;;8.42;47.79
19783;BME280;10051;40.294;-3.754;2023-01-26T10:20:57;94148.03;;;7.58;46.50
19783;BME280;10051;40.294;-3.754;2023-01-26T10:23:54;94356.94;;;8.87;46.72
19783;BME280;10051;40.294;-3.754;2023-01-26T10:26:50;94203.84;;;7.90;46.39
19783;BME280;10051;40.294;-3.754;2023-01-26T10:29:20;94376.34;;;9.07;45.79
19783;BME280;10051;40.294;-3.754;2023-01-26T10:31:51;94216.69;;;8.12;45.29
19783;BME280;10051;40.294;-3.754;2023-01-26T10:34:25;94163.25;;;7.87;46.11
19783;BME280;10051;40.294;-3.754;2023-01-26T10:37:50;94123.72;;;7.79;45.47
19783;BME280;10051;40.294;-3.754;2023-01-26T10:40:06;94300.25;;;9.17;45.00
19783;BME280;10051;40.294;-3.754;2023-01-26T10:42:36;94215.66;;;8.70;43.59
19783;BME280;10051;40.294;-3.754;2023-01-26T10:45:30;94341.63;;;9.57;43.67
19783;BME280;10051;40.294;-3.754;2023-01-26T10:48:08;94282.44;;;9.14;44.25
19783;BME280;10051;40.294;-3.754;2023-01-26T10:50:41;94208.53;;;8.76;43.66
19783;BME280;10051;40.294;-3.754;2023-01-26T10:53:33;94197.00;;;8.77;43.86
19783;BME280;10051;40.294;-3.754;2023-01-26T10:56:03;94147.22;;;8.67;43.08
19783;BME280;10051;40.294;-3.754;2023-01-26T10:58:49;94331.38;;;9.71;43.40
19783;BME280;10051;40.294;-3.754;2023-01-26T11:01:17;94165.63;;;8.56;45.23
19783;BME280;10051;40.294;-3.754;2023-01-26T11:04:10;94193.84;;;8.90;46.33
19783;BME280;10051;40.294;-3.754;2023-01-26T11:06:43;94105.84;;;8.43;46.85
19783;BME280;10051;40.294;-3.754;2023-01-26T11:09:16;94234.59;;;9.48;46.59
19783;BME280;10051;40.294;-3.754;2023-01-26T11:12:01;94320.38;;;10.14;45.35
19783;BME280;10051;40.294;-3.754;2023-01-26T11:14:30;94229.75;;;9.66;45.20
19783;BME280;10051;40.294;-3.754;2023-01-26T11:16:59;94150.09;;;9.41;44.32
19783;BME280;10051;40.294;-3.754;2023-01-26T11:19:31;94283.69;;;10.48;43.94
19783;BME280;10051;40.294;-3.754;2023-01-26T11:22:08;94209.03;;;10.04;43.21
19783;BME280;10051;40.294;-3.754;2023-01-26T11:27:34;94297.19;;;10.31;43.42
19783;BME280;10051;40.294;-3.754;2023-01-26T11:33:02;94279.34;;;10.23;44.02
19783;BME280;10051;40.294;-3.754;2023-01-26T11:35:56;94253.22;;;9.97;44.58
19783;BME280;10051;40.294;-3.754;2023-01-26T11:38:37;94229.81;;;9.50;44.64
19783;BME280;10051;40.294;-3.754;2023-01-26T11:41:24;94278.63;;;9.57;45.84
19783;BME280;10051;40.294;-3.754;2023-01-26T11:50:08;94267.63;;;9.49;45.76
19783;BME280;10051;40.294;-3.754;2023-01-26T11:58:42;94250.44;;;9.12;43.38
19783;BME280;10051;40.294;-3.754;2023-01-26T12:01:27;94227.63;;;9.02;43.63
19783;BME280;10051;40.294;-3.754;2023-01-26T12:03:55;94198.03;;;8.97;43.08
19783;BME280;10051;40.294;-3.754;2023-01-26T12:08:59;94186.38;;;9.29;42.68
19783;BME280;10051;40.294;-3.754;2023-01-26T12:11:47;94214.28;;;10.04;41.92
19783;BME280;10051;40.294;-3.754;2023-01-26T12:20:18;94197.13;;;10.81;40.39
19783;BME280;10051;40.294;-3.754;2023-01-26T12:25:37;94174.63;;;10.94;40.25
19783;BME280;10051;40.294;-3.754;2023-01-26T12:28:33;94169.66;;;10.93;39.71
19783;BME280;10051;40.294;-3.754;2023-01-26T12:31:21;94167.31;;;10.91;40.00
19783;BME280;10051;40.294;-3.754;2023-01-26T12:33:51;94134.97;;;10.66;39.85
19783;BME280;10051;40.294;-3.754;2023-01-26T12:39:33;94144.81;;;10.80;38.29
19783;BME280;10051;40.294;-3.754;2023-01-26T12:44:57;94143.47;;;10.82;38.63
19783;BME280;10051;40.294;-3.754;2023-01-26T12:47:51;94101.59;;;10.62;38.66
19783;BME280;10051;40.294;-3.754;2023-01-26T12:58:47;94108.75;;;11.05;38.48
19783;BME280;10051;40.294;-3.754;2023-01-26T13:01:20;94119.72;;;11.12;37.69
19783;BME280;10051;40.294;-3.754;2023-01-26T13:03:54;94109.63;;;11.19;37.32
19783;BME280;10051;40.294;-3.754;2023-01-26T13:06:22;94094.09;;;11.18;37.78
19783;BME280;10051;40.294;-3.754;2023-01-26T13:11:41;94102.59;;;11.34;38.14
19783;BME280;10051;40.294;-3.754;2023-01-26T13:14:27;94099.03;;;11.24;37.19
19783;BME280;10051;40.294;-3.754;2023-01-26T13:16:54;94092.72;;;11.25;36.89
19783;BME280;10051;40.294;-3.754;2023-01-26T13:19:36;94086.34;;;11.26;36.82
19783;BME280;10051;40.294;-3.754;2023-01-26T13:24:45;94065.97;;;11.18;36.40
19783;BME280;10051;40.294;-3.754;2023-01-26T13:27:42;94077.19;;;11.24;36.95
19783;BME280;10051;40.294;-3.754;2023-01-26T13:35:15;94041.91;;;11.44;37.77
19783;BME280;10051;40.294;-3.754;2023-01-26T13:40:30;94056.56;;;11.83;37.18
19783;BME280;10051;40.294;-3.754;2023-01-26T13:46:13;94049.53;;;12.12;37.13
19783;BME280;10051;40.294;-3.754;2023-01-26T13:48:43;94028.84;;;12.05;36.81
19783;BME280;10051;40.294;-3.754;2023-01-26T13:51:24;94019.88;;;12.06;36.61
19783;BME280;10051;40.294;-3.754;2023-01-26T13:54:04;93964.09;;;11.85;35.82
19783;BME280;10051;40.294;-3.754;2023-01-26T13:56:33;93985.13;;;12.04;35.41
19783;BME280;10051;40.294;-3.754;2023-01-26T13:59:18;94035.31;;;12.41;34.98
19783;BME280;10051;40.294;-3.754;2023-01-26T14:01:50;94021.44;;;12.35;35.34
19783;BME280;10051;40.294;-3.754;2023-01-26T14:04:21;93982.75;;;12.16;35.11
19783;BME280;10051;40.294;-3.754;2023-01-26T14:07:11;94019.69;;;12.44;35.11
19783;BME280;10051;40.294;-3.754;2023-01-26T14:09:50;94024.56;;;12.51;34.90
19783;BME280;10051;40.294;-3.754;2023-01-26T14:12:25;94028.09;;;12.46;34.78
19783;BME280;10051;40.294;-3.754;2023-01-26T14:15:03;94023.50;;;12.38;34.80
19783;BME280;10051;40.294;-3.754;2023-01-26T14:17:32;93994.00;;;12.22;35.22
19783;BME280;10051;40.294;-3.754;2023-01-26T14:19:59;94000.66;;;12.33;35.24
19783;BME280;10051;40.294;-3.754;2023-01-26T14:22:28;94006.41;;;12.49;34.95
19783;BME280;10051;40.294;-3.754;2023-01-26T14:24:53;93987.16;;;12.35;34.59
19783;BME280;10051;40.294;-3.754;2023-01-26T14:27:34;94006.91;;;12.52;34.48
19783;BME280;10051;40.294;-3.754;2023-01-26T14:30:02;93959.84;;;12.31;34.51
19783;BME280;10051;40.294;-3.754;2023-01-26T14:32:33;94009.81;;;12.64;34.29
19783;BME280;10051;40.294;-3.754;2023-01-26T14:34:59;93967.44;;;12.46;33.78
19783;BME280;10051;40.294;-3.754;2023-01-26T14:37:26;93961.28;;;12.51;33.89